Time;durP1;ratioP1;P1;durP2;ratioP2;P2;SDS_P1;SDS_P2;PMS_P1;PMS_P2;Temp;Humidity;BMP_temperature;BMP_pressure;BME280_temperature;BME280_humidity;BME280_pressure;Samples;Min_cycle;Max_cycle;Signal;HPM_P1;HPM_P2
2022/01/13 00:01:59;;;;;;;73.20;65.10;;;;;;;-3.83;74.79;99632.74;109676;1273;22483;-70
2022/01/13 00:04:27;;;;;;;85.90;69.20;;;;;;;-3.79;75.21;99629.80;109670;1274;22442;-69
2022/01/13 00:06:58;;;;;;;94.80;69.50;;;;;;;-3.76;75.14;99624.44;109669;1273;22557;-67
2022/01/13 00:09:32;;;;;;;78.60;67.40;;;;;;;-3.76;75.06;99623.23;109684;1273;22524;-68
2022/01/13 00:12:08;;;;;;;91.80;70.50;;;;;;;-3.77;75.41;99621.23;109674;1274;22521;-68
2022/01/13 00:14:52;;;;;;;88.70;71.30;;;;;;;-3.79;75.45;99623.17;109657;1274;22490;-69
2022/01/13 00:17:43;;;;;;;83.10;66.40;;;;;;;-3.81;75.86;99618.86;109594;1274;22407;-69
2022/01/13 00:25:57;;;;;;;80.10;67.20;;;;;;;-3.71;75.28;99618.27;109680;1274;22424;-70
2022/01/13 00:28:28;;;;;;;77.80;68.30;;;;;;;-3.73;75.55;99607.05;109676;1273;22555;-70
2022/01/13 00:31:05;;;;;;;86.40;71.30;;;;;;;-3.73;75.73;99609.85;109693;1274;22421;-69
2022/01/13 00:33:35;;;;;;;78.00;69.70;;;;;;;-3.72;75.98;99611.98;109675;1273;22568;-70
2022/01/13 00:36:09;;;;;;;81.80;64.70;;;;;;;-3.73;75.96;99621.40;109678;1273;22443;-69
2022/01/13 00:38:43;;;;;;;75.70;63.50;;;;;;;-3.73;76.71;99621.31;109676;1273;22508;-71
2022/01/13 00:41:16;;;;;;;73.30;64.70;;;;;;;-3.71;76.74;99620.01;109660;1274;22428;-70
2022/01/13 00:43:49;;;;;;;83.90;67.50;;;;;;;-3.68;76.49;99620.00;109668;1274;22602;-69
2022/01/13 00:46:27;;;;;;;81.00;70.70;;;;;;;-3.66;76.64;99622.23;109676;1273;22492;-70
2022/01/13 00:48:58;;;;;;;86.30;69.30;;;;;;;-3.67;76.77;99624.01;109637;1274;22441;-68
2022/01/13 00:51:26;;;;;;;88.20;70.50;;;;;;;-3.71;77.25;99634.18;109689;1273;22467;-68
2022/01/13 00:53:55;;;;;;;72.80;64.50;;;;;;;-3.74;77.32;99638.61;109649;1273;22427;-69
2022/01/13 00:56:23;;;;;;;79.20;66.10;;;;;;;-3.72;77.08;99636.98;109679;1273;22397;-71
2022/01/13 00:58:51;;;;;;;85.40;70.30;;;;;;;-3.72;77.46;99641.02;109681;1274;22515;-71
2022/01/13 01:01:19;;;;;;;93.10;69.80;;;;;;;-3.72;77.18;99643.98;109687;1273;22221;-70
2022/01/13 01:03:48;;;;;;;78.50;68.20;;;;;;;-3.73;78.04;99650.38;109670;1273;22417;-71
2022/01/13 01:06:16;;;;;;;80.50;66.70;;;;;;;-3.76;78.74;99656.70;109636;1273;22232;-70
2022/01/13 01:08:45;;;;;;;85.70;70.50;;;;;;;-3.81;79.75;99655.64;109576;1274;22418;-70
2022/01/13 01:11:13;;;;;;;81.00;69.50;;;;;;;-3.79;78.62;99652.61;109679;1273;22464;-69
2022/01/13 01:13:41;;;;;;;76.80;66.60;;;;;;;-3.75;79.28;99661.50;109681;1273;22428;-71
2022/01/13 01:16:11;;;;;;;98.20;74.90;;;;;;;-3.74;79.96;99663.33;109667;1273;22464;-70
2022/01/13 01:31:53;;;;;;;121.60;85.70;;;;;;;-3.84;80.11;99678.45;109677;1274;22451;-68
2022/01/13 01:37:02;;;;;;;119.20;82.80;;;;;;;-3.83;80.06;99677.69;109667;1273;22452;-68
2022/01/13 01:39:30;;;;;;;86.80;74.00;;;;;;;-3.79;80.01;99670.75;109657;1274;22455;-68
2022/01/13 01:41:58;;;;;;;99.60;73.80;;;;;;;-3.74;80.92;99669.17;109659;1273;22476;-68
2022/01/13 01:44:33;;;;;;;112.00;79.40;;;;;;;-3.72;80.67;99660.65;109689;1272;22524;-68
2022/01/13 01:47:02;;;;;;;135.20;86.70;;;;;;;-3.74;83.10;99652.78;109687;1273;22544;-68
2022/01/13 01:49:38;;;;;;;102.20;77.20;;;;;;;-3.75;82.12;99650.11;109673;1273;22547;-68
2022/01/13 01:52:07;;;;;;;108.70;74.00;;;;;;;-3.73;81.30;99654.17;109654;1274;22554;-69
2022/01/13 01:54:36;;;;;;;88.20;73.50;;;;;;;-3.71;81.96;99660.88;109660;1274;22514;-68
2022/01/13 01:57:06;;;;;;;107.40;78.20;;;;;;;-3.67;81.35;99658.52;109693;1274;22418;-71
2022/01/13 01:59:37;;;;;;;117.70;84.20;;;;;;;-3.64;80.98;99657.54;109668;1274;23215;-71
2022/01/13 02:02:07;;;;;;;129.10;87.90;;;;;;;-3.61;81.75;99650.98;109679;1273;22476;-69
2022/01/13 02:04:36;;;;;;;110.30;80.50;;;;;;;-3.62;81.55;99630.98;109709;1274;22450;-72
2022/01/13 02:07:07;;;;;;;99.90;76.10;;;;;;;-3.60;81.38;99625.39;109705;1274;23183;-70
2022/01/13 02:09:38;;;;;;;110.40;74.90;;;;;;;-3.55;81.42;99634.45;109673;1274;22456;-71
2022/01/13 02:12:11;;;;;;;102.20;76.40;;;;;;;-3.51;82.06;99633.81;109665;1274;23225;-69
2022/01/13 02:17:24;;;;;;;121.80;86.80;;;;;;;-3.51;82.03;99620.34;109687;1274;22275;-70
2022/01/13 02:19:55;;;;;;;106.10;77.70;;;;;;;-3.51;82.16;99636.65;109669;1273;23393;-71
2022/01/13 02:22:24;;;;;;;95.50;73.50;;;;;;;-3.49;81.72;99656.27;109690;1273;22451;-72
2022/01/13 02:24:53;;;;;;;84.20;71.80;;;;;;;-3.46;82.46;99664.95;109684;1274;23200;-71
2022/01/13 02:27:22;;;;;;;87.90;74.20;;;;;;;-3.41;82.28;99686.01;109676;1273;22340;-71
2022/01/13 02:29:50;;;;;;;122.50;81.40;;;;;;;-3.38;82.09;99681.49;109282;1274;507710;-72
2022/01/13 02:32:19;;;;;;;121.60;83.80;;;;;;;-3.39;82.81;99663.34;109662;1273;22390;-71
2022/01/13 02:34:48;;;;;;;97.50;76.50;;;;;;;-3.41;82.22;99638.89;109707;1273;22363;-71
2022/01/13 02:37:16;;;;;;;95.30;74.20;;;;;;;-3.39;82.77;99617.80;109693;1273;22442;-72
2022/01/13 02:39:44;;;;;;;113.00;76.00;;;;;;;-3.36;83.78;99604.69;109584;1274;22293;-72
2022/01/13 02:42:14;;;;;;;117.30;80.10;;;;;;;-3.36;83.33;99593.25;109591;1274;22549;-71
2022/01/13 02:45:01;;;;;;;117.70;83.90;;;;;;;-3.32;82.86;99592.29;109670;1274;23305;-72
2022/01/13 02:50:11;;;;;;;98.70;72.80;;;;;;;-3.32;82.67;99586.63;109698;1273;22550;-73
2022/01/13 02:52:39;;;;;;;99.60;75.40;;;;;;;-3.29;83.56;99589.41;109649;1274;23220;-72
2022/01/13 02:55:08;;;;;;;121.20;81.90;;;;;;;-3.29;83.75;99598.27;109574;1274;22529;-72
2022/01/13 02:57:39;;;;;;;108.70;77.40;;;;;;;-3.30;83.46;99595.02;109693;1274;23492;-71
2022/01/13 03:00:08;;;;;;;83.70;71.20;;;;;;;-3.30;83.64;99612.19;109643;1274;23122;-72
2022/01/13 03:02:36;;;;;;;79.90;67.90;;;;;;;-3.28;84.29;99621.87;109649;1274;22361;-72
2022/01/13 03:05:11;;;;;;;91.70;76.50;;;;;;;-3.22;83.15;99630.73;109650;1273;23152;-73
2022/01/13 03:07:39;;;;;;;102.50;80.50;;;;;;;-3.21;83.40;99644.28;109693;1274;23173;-74
2022/01/13 03:10:09;;;;;;;108.60;77.90;;;;;;;-3.19;83.31;99638.43;109685;1273;22458;-72
2022/01/13 03:12:41;;;;;;;88.90;74.20;;;;;;;-3.19;83.55;99628.45;109616;1274;22434;-70
2022/01/13 03:15:09;;;;;;;81.40;71.20;;;;;;;-3.19;83.74;99621.55;109649;1273;22544;-70
2022/01/13 03:17:37;;;;;;;90.00;73.00;;;;;;;-3.15;84.11;99619.98;109679;1274;22444;-70
2022/01/13 03:20:06;;;;;;;101.50;78.90;;;;;;;-3.09;83.41;99614.77;109681;1274;22866;-69
2022/01/13 03:22:34;;;;;;;103.00;81.80;;;;;;;-3.04;83.04;99613.45;109642;1274;22347;-70
2022/01/13 03:25:03;;;;;;;105.30;79.00;;;;;;;-3.01;83.14;99612.76;109673;1274;22550;-69
2022/01/13 03:27:34;;;;;;;90.90;73.60;;;;;;;-3.00;83.32;99609.85;109662;1273;22362;-70
2022/01/13 03:30:06;;;;;;;86.60;75.30;;;;;;;-2.96;83.11;99606.58;109597;1273;22411;-70
2022/01/13 03:32:36;;;;;;;91.40;75.60;;;;;;;-2.89;82.95;99606.23;109656;1274;23151;-72
2022/01/13 03:35:06;;;;;;;86.00;72.10;;;;;;;-2.84;83.95;99596.16;109622;1274;22423;-70
2022/01/13 03:37:34;;;;;;;102.00;74.80;;;;;;;-2.84;84.36;99585.86;109668;1273;22442;-70
2022/01/13 03:40:03;;;;;;;95.00;77.00;;;;;;;-2.86;84.67;99585.48;109682;1273;22560;-70
2022/01/13 03:42:31;;;;;;;87.80;72.90;;;;;;;-2.90;84.33;99591.16;109661;1273;22488;-69
2022/01/13 03:45:00;;;;;;;86.00;72.50;;;;;;;-2.91;84.11;99593.17;109671;1273;22485;-69
2022/01/13 03:47:28;;;;;;;81.50;70.50;;;;;;;-2.89;83.79;99593.50;109675;1273;22239;-70
2022/01/13 03:49:56;;;;;;;81.40;72.70;;;;;;;-2.85;83.64;99600.77;109675;1273;22474;-69
2022/01/13 03:52:24;;;;;;;99.20;80.20;;;;;;;-2.82;83.61;99595.73;109657;1273;22649;-69
2022/01/13 03:55:24;;;;;;;111.70;82.90;;;;;;;-2.82;84.17;99602.88;109678;1273;22359;-69
2022/01/13 03:58:30;;;;;;;90.30;73.30;;;;;;;-2.82;84.43;99603.63;109683;1273;22426;-72
2022/01/13 04:01:35;;;;;;;81.10;71.00;;;;;;;-2.82;84.43;99598.29;109691;1273;22439;-73
2022/01/13 04:04:04;;;;;;;97.40;76.40;;;;;;;-2.80;85.11;99607.64;109665;1273;22465;-72
2022/01/13 04:06:42;;;;;;;98.50;76.70;;;;;;;-2.78;84.70;99611.27;109663;1273;22341;-72
2022/01/13 04:09:29;;;;;;;122.70;82.80;;;;;;;-2.77;84.83;99612.52;109671;1274;22448;-72
2022/01/13 04:11:58;;;;;;;116.30;78.10;;;;;;;-2.77;84.76;99602.02;109652;1274;22573;-72
2022/01/13 04:14:53;;;;;;;118.20;79.00;;;;;;;-2.76;85.12;99604.87;109669;1273;22969;-69
2022/01/13 04:17:24;;;;;;;115.30;78.60;;;;;;;-2.73;85.36;99602.52;109647;1274;22551;-70
2022/01/13 04:19:53;;;;;;;104.80;76.70;;;;;;;-2.71;85.10;99603.49;109499;1274;22487;-69
2022/01/13 04:22:23;;;;;;;141.60;86.00;;;;;;;-2.70;85.17;99602.00;109676;1274;22448;-69
2022/01/13 04:24:52;;;;;;;110.50;78.50;;;;;;;-2.70;85.17;99609.73;109684;1274;22405;-70
2022/01/13 04:27:29;;;;;;;110.40;76.40;;;;;;;-2.70;85.25;99609.15;109662;1274;22397;-69
2022/01/13 04:32:43;;;;;;;84.60;74.70;;;;;;;-2.62;85.37;99596.33;109667;1272;22486;-70
2022/01/13 04:35:11;;;;;;;88.20;73.10;;;;;;;-2.59;85.22;99584.02;109680;1273;22366;-69
2022/01/13 04:37:39;;;;;;;96.70;75.30;;;;;;;-2.57;85.50;99581.69;109689;1274;22426;-70
2022/01/13 04:40:11;;;;;;;81.00;69.70;;;;;;;-2.58;85.81;99582.81;109696;1273;23163;-71
2022/01/13 04:42:42;;;;;;;74.30;66.40;;;;;;;-2.57;85.88;99582.52;109670;1274;22598;-71
2022/01/13 04:45:10;;;;;;;71.40;64.20;;;;;;;-2.55;86.05;99585.11;109674;1274;23257;-72
2022/01/13 04:47:38;;;;;;;75.70;66.20;;;;;;;-2.51;85.54;99585.91;109601;1274;22433;-71
2022/01/13 04:50:06;;;;;;;90.70;75.20;;;;;;;-2.45;85.67;99586.67;109694;1273;23076;-72
2022/01/13 04:52:35;;;;;;;85.70;74.70;;;;;;;-2.42;86.33;99588.08;109674;1273;22644;-72
2022/01/13 04:55:09;;;;;;;110.80;77.80;;;;;;;-2.41;86.35;99587.95;109669;1273;22448;-72
2022/01/13 04:57:37;;;;;;;91.80;71.90;;;;;;;-2.41;86.78;99583.75;109686;1273;22444;-72
2022/01/13 05:00:08;;;;;;;75.60;67.70;;;;;;;-2.39;86.03;99581.58;109693;1274;22441;-72
2022/01/13 05:02:36;;;;;;;86.90;71.30;;;;;;;-2.35;86.13;99580.88;109587;1274;22482;-70
2022/01/13 05:05:04;;;;;;;81.20;70.10;;;;;;;-2.29;85.42;99577.22;109672;1273;22438;-71
2022/01/13 05:07:33;;;;;;;120.60;79.00;;;;;;;-2.23;85.39;99571.47;109678;1274;23361;-72
2022/01/13 05:10:03;;;;;;;136.70;74.50;;;;;;;-2.20;85.72;99568.89;109671;1274;23617;-71
2022/01/13 05:12:37;;;;;;;84.60;71.20;;;;;;;-2.23;87.92;99572.85;109659;1272;22589;-71
2022/01/13 05:15:08;;;;;;;102.90;74.60;;;;;;;-2.23;86.98;99576.29;109673;1273;22429;-70
2022/01/13 05:20:24;;;;;;;81.70;69.20;;;;;;;-2.21;87.25;99581.66;109687;1272;22341;-67
2022/01/13 05:22:52;;;;;;;93.60;71.80;;;;;;;-2.19;86.58;99580.52;109658;1274;22339;-70
2022/01/13 05:25:21;;;;;;;102.20;75.60;;;;;;;-2.17;86.84;99577.64;109690;1274;22356;-70
2022/01/13 05:27:49;;;;;;;78.50;64.40;;;;;;;-2.17;86.74;99579.94;109673;1272;23595;-69
2022/01/13 05:30:19;;;;;;;76.30;65.50;;;;;;;-2.16;87.34;99585.16;109680;1273;22481;-69
2022/01/13 05:32:47;;;;;;;74.70;64.60;;;;;;;-2.14;87.52;99584.42;109666;1273;22432;-68
2022/01/13 05:35:17;;;;;;;96.90;72.00;;;;;;;-2.12;87.76;99590.44;109668;1273;22493;-68
2022/01/13 05:37:45;;;;;;;143.20;76.80;;;;;;;-2.11;87.15;99586.29;109680;1274;23279;-68
2022/01/13 05:40:17;;;;;;;93.90;70.50;;;;;;;-2.11;87.00;99581.36;109666;1274;22353;-69
2022/01/13 05:42:46;;;;;;;77.10;67.50;;;;;;;-2.09;87.25;99582.70;109695;1274;22639;-68
2022/01/13 05:45:16;;;;;;;75.20;65.60;;;;;;;-2.07;87.39;99577.96;109659;1274;22482;-69
2022/01/13 05:47:47;;;;;;;86.90;72.70;;;;;;;-2.05;87.55;99573.66;109581;1273;23084;-70
2022/01/13 05:50:17;;;;;;;122.30;75.60;;;;;;;-2.06;88.73;99567.98;109672;1273;22401;-71
2022/01/13 05:52:46;;;;;;;89.40;70.20;;;;;;;-2.07;88.85;99570.83;109657;1274;22460;-69
2022/01/13 05:55:15;;;;;;;83.80;69.20;;;;;;;-2.06;88.45;99567.61;109655;1274;22438;-71
2022/01/13 05:57:43;;;;;;;89.60;71.50;;;;;;;-2.04;88.64;99565.30;109687;1273;22514;-70
2022/01/13 06:00:14;;;;;;;83.70;69.20;;;;;;;-2.00;87.82;99563.03;109642;1274;22419;-70
2022/01/13 06:02:42;;;;;;;106.20;76.70;;;;;;;-1.99;88.10;99562.52;109663;1273;22480;-71
2022/01/13 06:05:11;;;;;;;86.80;72.80;;;;;;;-1.99;88.18;99556.95;109665;1273;23062;-68
2022/01/13 06:07:39;;;;;;;72.30;64.10;;;;;;;-1.98;88.01;99554.60;109684;1274;23200;-69
2022/01/13 06:10:10;;;;;;;94.90;71.40;;;;;;;-1.96;88.03;99553.22;109676;1274;22365;-70
2022/01/13 06:12:38;;;;;;;101.80;76.40;;;;;;;-1.94;88.35;99550.08;109666;1274;23402;-69
2022/01/13 06:15:10;;;;;;;100.20;77.50;;;;;;;-1.93;88.70;99561.06;109652;1274;22513;-70
2022/01/13 06:17:39;;;;;;;87.90;69.60;;;;;;;-1.93;88.30;99568.02;109594;1274;22567;-71
2022/01/13 06:20:10;;;;;;;73.60;65.50;;;;;;;-1.92;87.98;99574.59;109651;1274;22483;-70
2022/01/13 06:22:41;;;;;;;74.80;66.60;;;;;;;-1.89;87.84;99574.39;109640;1274;22592;-71
2022/01/13 06:25:10;;;;;;;77.60;69.30;;;;;;;-1.87;87.92;99573.13;109661;1274;22428;-70
2022/01/13 06:27:39;;;;;;;84.90;72.40;;;;;;;-1.85;87.78;99568.73;109660;1272;22504;-72
2022/01/13 06:30:28;;;;;;;92.70;70.20;;;;;;;-1.85;88.10;99563.56;109492;1276;22553;-71
2022/01/13 06:32:56;;;;;;;82.80;66.80;;;;;;;-1.83;87.64;99564.41;109650;1271;23230;-71
2022/01/13 06:35:25;;;;;;;79.40;65.60;;;;;;;-1.77;87.36;99571.37;109659;1273;22442;-70
2022/01/13 06:37:53;;;;;;;79.70;66.60;;;;;;;-1.73;87.42;99562.18;109669;1273;22398;-71
2022/01/13 06:40:22;;;;;;;78.10;69.70;;;;;;;-1.71;87.38;99563.72;109669;1274;22392;-72
2022/01/13 06:42:50;;;;;;;511.30;119.30;;;;;;;-1.69;87.39;99572.36;109667;1274;22448;-72
2022/01/13 06:45:18;;;;;;;201.80;77.70;;;;;;;-1.69;87.05;99579.40;109685;1273;22412;-69
2022/01/13 06:47:46;;;;;;;194.70;72.90;;;;;;;-1.67;87.05;99577.56;109682;1274;23226;-71
2022/01/13 06:50:16;;;;;;;78.60;63.30;;;;;;;-1.64;87.20;99584.70;109679;1273;22357;-69
2022/01/13 06:52:46;;;;;;;83.00;72.10;;;;;;;-1.64;87.31;99584.58;109663;1273;22222;-70
2022/01/13 06:55:15;;;;;;;77.50;69.70;;;;;;;-1.63;86.87;99597.14;109672;1273;23088;-70
2022/01/13 06:57:43;;;;;;;71.10;63.00;;;;;;;-1.64;87.41;99598.02;109656;1273;22435;-70
2022/01/13 07:00:12;;;;;;;64.00;56.40;;;;;;;-1.65;87.35;99595.33;109673;1273;23110;-70
2022/01/13 07:02:40;;;;;;;56.90;51.00;;;;;;;-1.66;87.65;99592.25;109665;1273;23280;-70
2022/01/13 07:05:09;;;;;;;65.20;58.50;;;;;;;-1.65;88.01;99595.28;109678;1274;23114;-70
2022/01/13 07:07:42;;;;;;;67.60;59.90;;;;;;;-1.65;87.65;99594.33;109682;1274;23260;-69
2022/01/13 07:10:12;;;;;;;64.50;57.90;;;;;;;-1.66;87.60;99588.86;109661;1274;23204;-69
2022/01/13 07:12:41;;;;;;;63.70;57.20;;;;;;;-1.68;87.48;99579.41;109646;1274;22494;-70
2022/01/13 07:15:10;;;;;;;60.70;54.50;;;;;;;-1.69;88.07;99571.64;109590;1274;22540;-69
2022/01/13 07:17:38;;;;;;;64.70;57.90;;;;;;;-1.68;87.80;99566.66;109654;1274;22513;-68
2022/01/13 07:20:07;;;;;;;75.00;65.80;;;;;;;-1.66;87.63;99569.45;109652;1273;22727;-67
2022/01/13 07:22:37;;;;;;;78.30;68.00;;;;;;;-1.66;87.60;99561.76;109672;1272;22493;-69
2022/01/13 07:25:07;;;;;;;69.60;59.10;;;;;;;-1.65;87.57;99565.11;109659;1272;23175;-69
2022/01/13 07:27:40;;;;;;;69.20;59.20;;;;;;;-1.64;87.41;99566.65;109663;1274;22551;-68
2022/01/13 07:30:10;;;;;;;59.40;53.50;;;;;;;-1.62;87.67;99573.41;109683;1274;22586;-67
2022/01/13 07:32:38;;;;;;;61.90;55.50;;;;;;;-1.60;87.76;99569.63;109559;1274;138402;-67
2022/01/13 07:35:07;;;;;;;65.80;58.90;;;;;;;-1.58;87.68;99571.27;109671;1270;22442;-70
2022/01/13 07:37:35;;;;;;;59.20;53.10;;;;;;;-1.60;88.14;99573.49;109683;1273;22426;-68
2022/01/13 07:40:04;;;;;;;60.30;54.20;;;;;;;-1.58;87.69;99571.37;109651;1273;23634;-69
2022/01/13 07:42:35;;;;;;;58.40;52.50;;;;;;;-1.54;87.95;99573.05;109651;1273;23197;-68
2022/01/13 07:45:03;;;;;;;61.90;55.60;;;;;;;-1.49;87.46;99577.23;109667;1274;22422;-69
2022/01/13 07:47:31;;;;;;;61.20;54.90;;;;;;;-1.46;87.68;99571.80;109677;1272;22315;-69
2022/01/13 07:49:59;;;;;;;57.50;51.50;;;;;;;-1.46;87.69;99561.64;109672;1272;22542;-69
2022/01/13 07:52:27;;;;;;;56.70;51.00;;;;;;;-1.46;88.21;99556.02;109668;1274;22549;-68
2022/01/13 07:54:55;;;;;;;53.40;48.10;;;;;;;-1.45;88.28;99551.34;109663;1273;22559;-68
2022/01/13 07:57:23;;;;;;;56.60;50.70;;;;;;;-1.44;88.35;99546.31;109672;1273;22395;-68
2022/01/13 07:59:56;;;;;;;54.40;48.90;;;;;;;-1.44;87.91;99539.02;109678;1272;22419;-69
2022/01/13 08:02:27;;;;;;;52.50;47.40;;;;;;;-1.43;87.94;99530.97;109658;1274;22481;-69
2022/01/13 08:04:56;;;;;;;56.40;51.00;;;;;;;-1.40;88.53;99525.40;109686;1273;22325;-70
2022/01/13 08:07:24;;;;;;;51.30;46.20;;;;;;;-1.34;88.18;99527.75;109678;1274;23324;-70
2022/01/13 08:09:52;;;;;;;54.80;49.20;;;;;;;-1.32;88.33;99516.88;109678;1274;22410;-70
2022/01/13 08:12:20;;;;;;;60.90;54.70;;;;;;;-1.30;88.18;99515.21;109673;1273;22436;-70
2022/01/13 08:14:50;;;;;;;55.20;49.50;;;;;;;-1.28;88.12;99512.86;109638;1274;22581;-71
2022/01/13 08:20:09;;;;;;;653.90;113.00;;;;;;;-1.23;88.78;99505.41;109658;1274;23093;-69
2022/01/13 08:22:37;;;;;;;74.40;51.60;;;;;;;-1.20;88.28;99497.97;109627;1272;22580;-74
2022/01/13 08:25:10;;;;;;;435.10;89.20;;;;;;;-1.18;88.24;99495.95;109638;1273;22422;-74
2022/01/13 08:27:38;;;;;;;77.00;55.80;;;;;;;-1.15;88.26;99495.03;109651;1273;22547;-73
2022/01/13 08:30:07;;;;;;;146.40;51.50;;;;;;;-1.12;88.44;99488.41;109662;1274;22540;-73
2022/01/13 08:32:35;;;;;;;99.00;49.10;;;;;;;-1.09;88.21;99502.84;109625;1273;22473;-74
2022/01/13 08:35:04;;;;;;;47.90;43.00;;;;;;;-1.04;88.09;99520.37;109654;1274;22436;-73
2022/01/13 08:37:33;;;;;;;55.20;49.80;;;;;;;-0.96;88.01;99530.89;109500;1274;22477;-73
2022/01/13 08:40:05;;;;;;;56.60;50.80;;;;;;;-0.90;87.93;99525.90;109635;1274;22451;-73
2022/01/13 08:42:35;;;;;;;58.00;52.00;;;;;;;-0.86;87.92;99511.87;109640;1274;22540;-73
2022/01/13 08:45:05;;;;;;;58.80;52.60;;;;;;;-0.85;87.98;99508.83;109531;1274;137850;-73
2022/01/13 08:47:34;;;;;;;54.80;49.10;;;;;;;-0.85;87.75;99513.06;109655;1274;23448;-73
2022/01/13 08:50:06;;;;;;;52.10;46.90;;;;;;;-0.82;87.65;99511.47;109662;1274;22414;-73
2022/01/13 08:52:38;;;;;;;59.70;53.30;;;;;;;-0.79;87.79;99503.36;109668;1274;23302;-74
2022/01/13 08:55:07;;;;;;;66.70;55.70;;;;;;;-0.78;87.65;99510.41;109664;1274;22431;-71
2022/01/13 08:57:35;;;;;;;53.80;48.20;;;;;;;-0.79;87.72;99502.03;109587;1275;22550;-73
2022/01/13 09:00:06;;;;;;;51.60;46.30;;;;;;;-0.78;87.71;99506.95;109645;1274;22484;-72
2022/01/13 09:02:43;;;;;;;55.30;49.60;;;;;;;-0.75;87.46;99521.09;109652;1274;22588;-73
2022/01/13 09:05:15;;;;;;;56.30;50.60;;;;;;;-0.76;87.45;99520.58;109672;1274;22531;-73
2022/01/13 09:07:44;;;;;;;55.80;50.30;;;;;;;-0.78;87.41;99515.14;109639;1271;22412;-73
2022/01/13 09:10:14;;;;;;;57.10;51.00;;;;;;;-0.81;87.44;99512.86;109482;1274;22576;-71
2022/01/13 09:12:43;;;;;;;52.40;47.10;;;;;;;-0.81;87.41;99519.75;109518;1274;23298;-70
2022/01/13 09:15:16;;;;;;;52.50;47.10;;;;;;;-0.80;87.36;99516.42;109665;1273;22468;-68
2022/01/13 09:17:51;;;;;;;54.80;49.40;;;;;;;-0.79;87.10;99518.43;109646;1274;22428;-68
2022/01/13 09:20:20;;;;;;;56.40;50.60;;;;;;;-0.80;87.16;99519.59;109654;1274;23151;-68
2022/01/13 09:22:50;;;;;;;51.70;46.10;;;;;;;-0.81;87.11;99505.66;109657;1274;22215;-69
2022/01/13 09:25:18;;;;;;;51.10;45.90;;;;;;;-0.82;87.22;99499.95;109427;1274;22485;-71
2022/01/13 09:27:47;;;;;;;51.30;46.20;;;;;;;-0.77;87.10;99501.80;109641;1274;22506;-70
2022/01/13 09:30:18;;;;;;;57.70;51.60;;;;;;;-0.74;87.08;99506.84;109544;1274;139056;-70
2022/01/13 09:32:47;;;;;;;57.30;51.60;;;;;;;-0.74;86.74;99506.23;109504;1274;22527;-70
2022/01/13 09:35:16;;;;;;;53.20;47.70;;;;;;;-0.76;86.63;99497.09;109584;1274;22643;-70
2022/01/13 09:37:44;;;;;;;52.50;47.20;;;;;;;-0.76;86.69;99500.60;109646;1272;22466;-70
2022/01/13 09:40:17;;;;;;;49.30;44.40;;;;;;;-0.75;86.76;99498.13;109677;1274;23528;-71
2022/01/13 09:42:53;;;;;;;58.70;52.80;;;;;;;-0.75;86.59;99500.11;109423;1274;22565;-71
2022/01/13 09:45:21;;;;;;;56.70;50.90;;;;;;;-0.76;86.64;99496.56;109645;1272;22513;-71
2022/01/13 09:47:50;;;;;;;49.40;44.60;;;;;;;-0.76;86.34;99502.41;109666;1274;22503;-71
2022/01/13 09:50:23;;;;;;;53.70;48.40;;;;;;;-0.73;86.36;99492.84;109651;1274;22466;-72
2022/01/13 09:52:51;;;;;;;60.20;53.90;;;;;;;-0.66;86.59;99491.22;109637;1274;22449;-71
2022/01/13 09:55:20;;;;;;;58.40;52.50;;;;;;;-0.58;86.45;99484.86;109685;1272;22709;-71
2022/01/13 09:57:51;;;;;;;52.60;47.30;;;;;;;-0.55;86.15;99483.09;109671;1274;22341;-71
2022/01/13 10:00:25;;;;;;;50.10;45.00;;;;;;;-0.55;85.95;99481.32;109660;1274;23134;-71
2022/01/13 10:02:53;;;;;;;48.90;43.90;;;;;;;-0.52;85.58;99481.59;109663;1273;23702;-71
2022/01/13 10:05:23;;;;;;;53.60;48.30;;;;;;;-0.50;85.52;99484.02;109656;1272;22398;-71
2022/01/13 10:07:53;;;;;;;55.70;50.20;;;;;;;-0.49;85.74;99484.20;109656;1274;22512;-71
2022/01/13 10:10:31;;;;;;;54.30;49.10;;;;;;;-0.46;85.84;99475.95;109665;1271;22428;-72
2022/01/13 10:13:04;;;;;;;46.00;41.30;;;;;;;-0.42;85.64;99470.77;109627;1274;22402;-71
2022/01/13 10:18:44;;;;;;;45.80;41.30;;;;;;;-0.34;85.33;99467.05;109671;1274;22432;-72
2022/01/13 10:21:18;;;;;;;51.30;46.30;;;;;;;-0.31;85.39;99470.71;109656;1274;22461;-71
2022/01/13 10:24:12;;;;;;;44.90;40.50;;;;;;;-0.30;85.30;99466.02;109649;1274;23222;-71
2022/01/13 10:26:55;;;;;;;43.00;38.60;;;;;;;-0.26;84.95;99456.13;109658;1274;22452;-71
2022/01/13 10:29:37;;;;;;;46.60;41.90;;;;;;;-0.19;85.01;99443.11;109663;1272;23020;-71
2022/01/13 10:32:07;;;;;;;60.90;54.90;;;;;;;-0.15;84.71;99436.41;109644;1274;22357;-71
2022/01/13 10:34:38;;;;;;;50.50;45.60;;;;;;;-0.12;84.98;99445.21;109649;1273;22414;-70
2022/01/13 10:37:11;;;;;;;54.30;48.60;;;;;;;-0.08;84.77;99445.59;109650;1274;23177;-72
2022/01/13 10:39:53;;;;;;;47.80;42.80;;;;;;;-0.02;84.80;99439.70;109638;1274;22515;-71
2022/01/13 10:45:02;;;;;;;47.10;42.50;;;;;;;0.12;84.37;99424.81;109669;1274;22440;-71
2022/01/13 10:47:30;;;;;;;49.30;44.50;;;;;;;0.09;84.04;99416.19;109667;1272;22382;-71
2022/01/13 10:50:05;;;;;;;41.70;37.50;;;;;;;0.12;84.15;99423.89;109632;1274;22505;-71
2022/01/13 10:52:33;;;;;;;51.80;46.50;;;;;;;0.11;84.01;99421.52;109638;1273;22457;-71
2022/01/13 10:55:12;;;;;;;44.50;39.90;;;;;;;0.14;84.40;99414.48;109644;1274;22429;-70
2022/01/13 10:58:00;;;;;;;47.20;42.60;;;;;;;0.19;84.34;99408.08;109655;1274;22458;-71
2022/01/13 11:00:31;;;;;;;51.10;46.10;;;;;;;0.21;83.89;99406.98;109632;1274;22458;-70
2022/01/13 11:03:08;;;;;;;56.40;50.70;;;;;;;0.21;83.72;99415.11;109533;1274;137636;-71
2022/01/13 11:05:51;;;;;;;50.50;45.10;;;;;;;0.19;84.10;99411.10;109653;1274;22578;-70
2022/01/13 11:08:47;;;;;;;50.20;45.00;;;;;;;0.23;84.30;99407.41;109657;1274;22400;-71
2022/01/13 11:11:30;;;;;;;52.30;46.60;;;;;;;0.33;84.09;99401.10;109617;1271;22480;-71
2022/01/13 11:14:09;;;;;;;53.20;47.60;;;;;;;0.36;84.35;99393.95;109513;1274;22449;-70
2022/01/13 11:16:38;;;;;;;52.30;46.70;;;;;;;0.42;84.22;99387.56;109625;1274;22430;-70
2022/01/13 11:19:07;;;;;;;48.90;44.10;;;;;;;0.41;83.97;99389.15;109647;1274;22520;-70
2022/01/13 11:21:37;;;;;;;384.50;76.40;;;;;;;0.46;83.99;99391.46;109643;1272;22583;-70
2022/01/13 11:24:07;;;;;;;56.00;50.00;;;;;;;0.49;83.87;99388.66;109626;1274;22432;-71
2022/01/13 11:26:35;;;;;;;48.30;43.20;;;;;;;0.51;83.58;99385.95;109645;1274;22417;-70
2022/01/13 11:29:04;;;;;;;51.30;45.90;;;;;;;0.52;83.85;99382.76;109645;1272;23147;-70
2022/01/13 11:31:32;;;;;;;60.70;47.50;;;;;;;0.53;83.58;99380.65;109635;1274;22349;-69
2022/01/13 11:34:00;;;;;;;70.20;54.20;;;;;;;0.58;83.22;99370.66;109502;1274;138221;-71
2022/01/13 11:36:29;;;;;;;51.30;45.80;;;;;;;0.64;83.65;99361.52;109550;1275;22449;-70
2022/01/13 11:39:01;;;;;;;96.00;68.90;;;;;;;0.71;83.40;99362.77;109661;1274;23139;-70
2022/01/13 11:41:29;;;;;;;52.10;46.80;;;;;;;0.75;83.40;99363.36;109664;1273;22478;-69
2022/01/13 11:44:20;;;;;;;47.50;42.60;;;;;;;0.77;83.18;99357.02;109659;1274;22555;-70
2022/01/13 11:46:50;;;;;;;46.90;41.90;;;;;;;0.81;82.80;99361.08;109652;1273;22397;-71
2022/01/13 11:49:24;;;;;;;47.00;42.30;;;;;;;0.85;83.05;99360.41;109658;1273;23064;-71
2022/01/13 11:51:58;;;;;;;57.10;49.90;;;;;;;0.90;82.84;99356.94;109677;1274;22519;-71
2022/01/13 11:54:33;;;;;;;70.60;63.20;;;;;;;0.92;82.94;99351.94;109670;1273;22546;-71
2022/01/13 11:57:26;;;;;;;93.20;73.90;;;;;;;0.92;82.94;99355.81;109655;1272;22528;-71
2022/01/13 11:59:54;;;;;;;46.20;41.60;;;;;;;0.93;82.94;99348.86;109567;1273;22254;-71
2022/01/13 12:02:32;;;;;;;54.00;48.50;;;;;;;0.93;82.81;99338.42;109675;1273;23465;-72
2022/01/13 12:05:07;;;;;;;48.80;43.80;;;;;;;0.91;83.08;99340.91;109674;1274;22427;-72
2022/01/13 12:07:42;;;;;;;51.60;46.00;;;;;;;0.89;83.16;99340.90;109684;1274;22412;-73
2022/01/13 12:10:20;;;;;;;44.20;39.80;;;;;;;0.92;83.19;99336.91;109690;1274;22546;-71